Mount Sharp, Texas
Current Conditions -  °F | °C
As of 6:35 PM on Friday 21 Nov 2014 (Local Time) from KRYW Reporting Station
Light Rain Light Rain  
Wind Chill: 68°   Ceiling: 1300
Heat Index: 68°   Visibility: 10mi
Dew Point: 65°   Wind: 3mph
Humidity: 92%   Direction: 120°ESE
Pressure: 30.03"   Gusts: NA
Location:  30.2468°N, 98.1159°W
Report Text: KRYW 220035Z AUTO 12003KT 10SM -RA SCT006 BKN013 OVC017 20/19 A3003 RMK AO2 LTG DSNT SW AND W P0001 T02000186
Loading
Personal Weather Stations






























Interactive Weather Map New forecast layout! Learn more

10-Day Weather Forecast

Advertisements
Track Severe Weather on mobile